Time;durP1;ratioP1;P1;durP2;ratioP2;P2;SDS_P1;SDS_P2;PMS_P1;PMS_P2;Temp;Humidity;BMP_temperature;BMP_pressure;BME280_temperature;BME280_humidity;BME280_pressure;Samples;Min_cycle;Max_cycle;Signal;HPM_P1;HPM_P2
2021/11/19 00:00:57;;;;;;;20.27;12.75;;;11.10;99.90;;;;;;4129839;28;20037;-72
2021/11/19 00:02:57;;;;;;;23.73;13.27;;;11.20;99.90;;;;;;4126562;28;20046;-71
2021/11/19 00:04:58;;;;;;;21.35;12.40;;;11.10;99.90;;;;;;4131238;28;20383;-71
2021/11/19 00:06:59;;;;;;;27.67;13.93;;;11.10;99.90;;;;;;4131597;28;20045;-71
2021/11/19 00:09:01;;;;;;;22.52;13.10;;;11.10;99.90;;;;;;4115722;28;20034;-71
2021/11/19 00:11:06;;;;;;;27.55;14.02;;;11.20;99.90;;;;;;4129269;28;20525;-72
2021/11/19 00:13:07;;;;;;;28.08;14.27;;;11.20;99.90;;;;;;4112238;28;20031;-72
2021/11/19 00:15:09;;;;;;;23.77;12.70;;;11.20;99.90;;;;;;4128390;28;20434;-72
2021/11/19 00:17:10;;;;;;;27.77;13.95;;;11.10;99.90;;;;;;4115474;28;20030;-72
2021/11/19 00:19:11;;;;;;;28.58;13.90;;;11.20;99.90;;;;;;4129963;28;20033;-75
2021/11/19 00:21:13;;;;;;;23.42;13.32;;;11.20;99.90;;;;;;4112621;28;20113;-72
2021/11/19 00:23:14;;;;;;;29.00;12.60;;;11.20;99.90;;;;;;4128839;28;20636;-72
2021/11/19 00:25:15;;;;;;;22.50;12.65;;;11.20;99.90;;;;;;4113856;28;20034;-71
2021/11/19 00:27:19;;;;;;;25.23;12.43;;;11.20;99.90;;;;;;4114693;28;20041;-72
2021/11/19 00:29:19;;;;;;;23.65;12.27;;;11.20;99.90;;;;;;4131868;28;20437;-72
2021/11/19 00:31:23;;;;;;;24.08;12.40;;;11.20;99.90;;;;;;4112383;28;20042;-71
2021/11/19 00:33:24;;;;;;;27.17;13.25;;;11.20;99.90;;;;;;4128235;28;20042;-71
2021/11/19 00:35:25;;;;;;;23.95;12.38;;;11.20;99.90;;;;;;4114592;28;20422;-72
2021/11/19 00:37:26;;;;;;;29.60;13.20;;;11.10;99.90;;;;;;4112508;28;20157;-72
2021/11/19 00:39:27;;;;;;;25.20;12.63;;;11.20;99.90;;;;;;4129678;28;20126;-72
2021/11/19 00:41:29;;;;;;;25.10;11.60;;;11.20;99.90;;;;;;4129106;28;20093;-72
2021/11/19 00:43:29;;;;;;;21.23;11.20;;;11.10;99.90;;;;;;4114672;28;20063;-71
2021/11/19 00:45:31;;;;;;;23.10;11.63;;;11.10;99.90;;;;;;4108049;28;20038;-71
2021/11/19 00:47:32;;;;;;;17.95;10.70;;;11.10;99.90;;;;;;4132251;28;20053;-71
2021/11/19 00:49:36;;;;;;;19.38;10.80;;;11.20;99.90;;;;;;4129980;28;20038;-72
2021/11/19 00:51:40;;;;;;;20.45;11.23;;;11.20;99.90;;;;;;4129330;28;20046;-72
2021/11/19 00:53:44;;;;;;;20.55;11.00;;;11.20;99.90;;;;;;4127713;28;20065;-72
2021/11/19 00:55:44;;;;;;;19.67;10.68;;;11.20;99.90;;;;;;4129965;28;20026;-71
2021/11/19 00:57:45;;;;;;;25.98;11.82;;;11.20;99.90;;;;;;4118281;28;20041;-71
2021/11/19 00:59:47;;;;;;;27.20;12.40;;;11.10;99.90;;;;;;4116733;28;20143;-72
2021/11/19 01:01:55;;;;;;;25.88;13.00;;;11.10;99.90;;;;;;4118105;28;20173;-71
2021/11/19 01:03:57;;;;;;;22.95;11.60;;;11.10;99.90;;;;;;4100890;28;20034;-71
2021/11/19 01:05:58;;;;;;;24.85;11.10;;;11.10;99.90;;;;;;4131895;28;20041;-71
2021/11/19 01:07:59;;;;;;;17.50;9.70;;;11.20;99.90;;;;;;4132627;28;20037;-72
2021/11/19 01:10:09;;;;;;;26.20;11.02;;;11.20;99.90;;;;;;4131596;28;20491;-72
2021/11/19 01:12:14;;;;;;;23.23;11.68;;;11.10;99.90;;;;;;4130488;28;20080;-72
2021/11/19 01:14:22;;;;;;;18.48;11.30;;;11.10;99.90;;;;;;4132355;28;20108;-72
2021/11/19 01:16:30;;;;;;;21.63;12.88;;;11.10;99.90;;;;;;4130680;28;20030;-72
2021/11/19 01:18:45;;;;;;;23.05;12.50;;;11.00;99.90;;;;;;4130914;28;20041;-71
2021/11/19 01:20:52;;;;;;;20.25;11.18;;;11.00;99.90;;;;;;4131876;28;20026;-72
2021/11/19 01:22:55;;;;;;;25.23;13.40;;;11.10;99.90;;;;;;4131286;28;20029;-72
2021/11/19 01:24:56;;;;;;;26.13;13.30;;;11.10;99.90;;;;;;4132410;28;20076;-71
2021/11/19 01:26:58;;;;;;;27.58;13.32;;;10.90;99.90;;;;;;4114779;28;20018;-72
2021/11/19 01:29:03;;;;;;;30.30;14.88;;;11.00;99.90;;;;;;4132113;28;20026;-72
2021/11/19 01:31:11;;;;;;;23.75;12.48;;;11.00;99.90;;;;;;4129117;28;20046;-72
2021/11/19 01:33:12;;;;;;;23.25;12.02;;;11.00;99.90;;;;;;4117162;28;20031;-72
2021/11/19 01:35:13;;;;;;;25.48;12.98;;;11.00;99.90;;;;;;4132306;28;20049;-71
2021/11/19 01:37:14;;;;;;;22.77;13.52;;;11.00;99.90;;;;;;4132036;28;20330;-71
2021/11/19 01:39:19;;;;;;;27.58;13.70;;;11.00;99.90;;;;;;4132222;28;20026;-72
2021/11/19 01:41:32;;;;;;;23.55;13.73;;;11.00;99.90;;;;;;4130245;28;20069;-72
2021/11/19 01:43:34;;;;;;;;;;;11.00;99.90;;;;;;4112784;28;20031;-71
2021/11/19 01:45:39;;;;;;;22.63;13.38;;;11.00;99.90;;;;;;4116576;28;19910;-71
2021/11/19 01:47:44;;;;;;;25.63;12.80;;;11.00;99.90;;;;;;4131055;28;20062;-72
2021/11/19 01:49:45;;;;;;;23.30;13.13;;;11.00;99.90;;;;;;4131474;28;20117;-72
2021/11/19 01:51:59;;;;;;;23.25;13.70;;;11.00;99.90;;;;;;4130817;28;20224;-72
2021/11/19 01:54:25;;;;;;;31.92;14.48;;;11.00;99.90;;;;;;4113733;28;20426;-72
2021/11/19 01:56:38;;;;;;;26.40;13.85;;;11.00;99.90;;;;;;4130261;28;20038;-72
2021/11/19 01:58:47;;;;;;;27.75;15.52;;;11.00;99.90;;;;;;4116617;28;20144;-72
2021/11/19 02:00:58;;;;;;;29.52;15.73;;;11.00;99.90;;;;;;4130469;28;20861;-72
2021/11/19 02:03:00;;;;;;;25.00;14.95;;;11.00;99.90;;;;;;4118767;28;20034;-72
2021/11/19 02:05:33;;;;;;;23.10;14.38;;;11.00;99.90;;;;;;4132023;28;20026;-72
2021/11/19 02:07:49;;;;;;;22.27;13.40;;;11.00;99.90;;;;;;4124962;28;20073;-72
2021/11/19 02:10:15;;;;;;;22.20;13.07;;;11.00;99.90;;;;;;4131066;28;20038;-72
2021/11/19 02:12:58;;;;;;;23.17;13.55;;;11.00;99.90;;;;;;4116309;28;20038;-72
2021/11/19 02:15:19;;;;;;;23.77;14.00;;;11.00;99.90;;;;;;4132062;28;20096;-72
2021/11/19 02:17:20;;;;;;;23.65;14.10;;;11.00;99.90;;;;;;4130681;28;20105;-72
2021/11/19 02:19:27;;;;;;;31.02;16.77;;;11.00;99.90;;;;;;4131912;28;20649;-72
2021/11/19 02:21:38;;;;;;;28.15;15.10;;;11.00;99.90;;;;;;4130746;28;20616;-72
2021/11/19 02:23:59;;;;;;;25.75;13.93;;;11.00;99.90;;;;;;4130256;28;20809;-72
2021/11/19 02:26:09;;;;;;;22.95;13.38;;;11.00;99.90;;;;;;4131987;28;20032;-72
2021/11/19 02:28:16;;;;;;;29.17;15.23;;;11.00;99.90;;;;;;4130914;28;20041;-72
2021/11/19 02:30:24;;;;;;;30.73;15.02;;;11.00;99.90;;;;;;4131138;28;20030;-72
2021/11/19 02:32:29;;;;;;;27.10;14.75;;;11.00;99.90;;;;;;4129357;28;20038;-72
2021/11/19 02:34:30;;;;;;;25.02;15.23;;;11.00;99.90;;;;;;4117993;28;20034;-72
2021/11/19 02:36:44;;;;;;;27.80;15.27;;;11.00;99.90;;;;;;4116821;28;20030;-72
2021/11/19 02:38:54;;;;;;;26.30;15.55;;;10.90;99.90;;;;;;4116504;28;20039;-72
2021/11/19 02:40:55;;;;;;;28.50;16.27;;;11.00;99.90;;;;;;4130094;28;20529;-72
2021/11/19 02:43:04;;;;;;;26.30;14.27;;;10.90;99.90;;;;;;4130139;28;20072;-72
2021/11/19 02:45:11;;;;;;;23.15;13.75;;;11.00;99.90;;;;;;4130955;28;20117;-72
2021/11/19 02:47:14;;;;;;;24.63;15.07;;;11.00;99.90;;;;;;4131099;28;20516;-72
2021/11/19 02:49:15;;;;;;;31.67;16.75;;;11.00;99.90;;;;;;4130161;28;20127;-72
2021/11/19 02:51:16;;;;;;;25.63;15.20;;;10.90;99.90;;;;;;4116442;28;20419;-72
2021/11/19 02:53:18;;;;;;;28.33;16.02;;;10.90;99.90;;;;;;4111624;28;20027;-72
2021/11/19 02:55:23;;;;;;;31.02;16.27;;;10.90;99.90;;;;;;4130714;28;20034;-72
2021/11/19 02:57:25;;;;;;;31.83;15.52;;;10.90;99.90;;;;;;4129198;28;20056;-72
2021/11/19 02:59:27;;;;;;;27.97;16.50;;;11.00;99.90;;;;;;4113089;28;20067;-72
2021/11/19 03:01:42;;;;;;;26.08;15.13;;;10.90;99.90;;;;;;4130288;28;20382;-72
2021/11/19 03:03:47;;;;;;;25.88;15.40;;;11.00;99.90;;;;;;4131929;28;20137;-72
2021/11/19 03:05:47;;;;;;;22.80;14.77;;;11.00;99.90;;;;;;4128792;28;20030;-72
2021/11/19 03:07:48;;;;;;;27.58;15.55;;;10.90;99.90;;;;;;4130108;28;20034;-72
2021/11/19 03:09:58;;;;;;;25.73;15.38;;;10.90;99.90;;;;;;4130097;28;20113;-72
2021/11/19 03:12:00;;;;;;;28.77;15.80;;;10.90;99.90;;;;;;4116700;28;20108;-72
2021/11/19 03:14:04;;;;;;;32.38;15.88;;;10.90;99.90;;;;;;4129694;28;20068;-72
2021/11/19 03:16:05;;;;;;;31.38;16.65;;;11.00;99.90;;;;;;4130841;28;20827;-72
2021/11/19 03:18:06;;;;;;;28.33;16.10;;;10.90;99.90;;;;;;4115241;28;20031;-72
2021/11/19 03:20:09;;;;;;;27.40;16.02;;;10.90;99.90;;;;;;4130148;28;20026;-72
2021/11/19 03:22:13;;;;;;;24.98;16.05;;;10.90;99.90;;;;;;4130155;28;20034;-72
2021/11/19 03:24:15;;;;;;;31.20;15.90;;;10.90;99.90;;;;;;4130434;28;20401;-72
2021/11/19 03:26:18;;;;;;;28.60;16.48;;;10.90;99.90;;;;;;4130709;28;20041;-72
2021/11/19 03:28:22;;;;;;;29.00;17.02;;;10.90;99.90;;;;;;4100692;28;20768;-72
2021/11/19 03:30:26;;;;;;;33.88;16.50;;;10.90;99.90;;;;;;4128758;28;20030;-72
2021/11/19 03:32:30;;;;;;;26.38;16.60;;;10.90;99.90;;;;;;4128978;28;20038;-72
2021/11/19 03:34:30;;;;;;;29.90;16.48;;;10.90;99.90;;;;;;4129521;28;20026;-72
2021/11/19 03:36:31;;;;;;;28.90;15.38;;;10.90;99.90;;;;;;4129742;28;20158;-72
2021/11/19 03:38:34;;;;;;;34.22;17.63;;;10.90;99.90;;;;;;4131505;28;20030;-72
2021/11/19 03:40:39;;;;;;;30.40;16.42;;;10.90;99.90;;;;;;4131503;28;20034;-72
2021/11/19 03:42:40;;;;;;;25.85;15.95;;;10.90;99.90;;;;;;4129308;28;20026;-72
2021/11/19 03:44:44;;;;;;;28.40;16.88;;;10.80;99.90;;;;;;4116191;28;20106;-72
2021/11/19 03:46:50;;;;;;;27.83;17.13;;;10.90;99.90;;;;;;4116473;28;20029;-72
2021/11/19 03:48:51;;;;;;;24.55;16.63;;;10.90;99.90;;;;;;4130181;28;20086;-72
2021/11/19 03:51:02;;;;;;;25.58;16.40;;;10.90;99.90;;;;;;4130410;28;20045;-72
2021/11/19 03:53:04;;;;;;;27.75;16.63;;;10.90;99.90;;;;;;4129576;28;20034;-72
2021/11/19 03:55:15;;;;;;;23.13;14.35;;;10.90;99.90;;;;;;4129664;28;20026;-72
2021/11/19 03:57:19;;;;;;;27.23;17.20;;;10.90;99.90;;;;;;4128927;28;20042;-72
2021/11/19 03:59:20;;;;;;;29.17;17.58;;;11.00;99.90;;;;;;4130242;28;20033;-72
2021/11/19 04:01:25;;;;;;;28.08;17.45;;;11.00;99.90;;;;;;4130305;28;20060;-72
2021/11/19 04:03:26;;;;;;;27.60;15.23;;;11.00;99.90;;;;;;4129209;28;20026;-72
2021/11/19 04:05:29;;;;;;;24.23;15.65;;;11.00;99.90;;;;;;4130668;28;20458;-72
2021/11/19 04:07:29;;;;;;;25.48;15.60;;;11.00;99.90;;;;;;4129900;28;20100;-72
2021/11/19 04:09:30;;;;;;;24.58;16.05;;;11.00;99.90;;;;;;4117280;28;20050;-72
2021/11/19 04:11:32;;;;;;;28.20;16.25;;;11.00;99.90;;;;;;4130426;28;20046;-72
2021/11/19 04:13:33;;;;;;;28.30;17.13;;;11.00;99.90;;;;;;4129357;28;20027;-72
2021/11/19 04:15:37;;;;;;;24.70;16.05;;;11.00;99.90;;;;;;4130763;28;20022;-72
2021/11/19 04:17:38;;;;;;;27.83;17.45;;;11.00;99.90;;;;;;4129885;28;20042;-72
2021/11/19 04:19:39;;;;;;;29.33;17.67;;;11.00;99.90;;;;;;4100372;28;20507;-72
2021/11/19 04:21:41;;;;;;;28.35;17.08;;;11.00;99.90;;;;;;4116074;28;20086;-72
2021/11/19 04:23:42;;;;;;;27.60;17.70;;;11.00;99.90;;;;;;4128431;28;20058;-72
2021/11/19 04:25:44;;;;;;;29.42;18.67;;;11.00;99.90;;;;;;4128454;28;20033;-72
2021/11/19 04:27:45;;;;;;;31.70;17.20;;;11.00;99.90;;;;;;4129707;28;20034;-72
2021/11/19 04:29:46;;;;;;;24.55;16.08;;;11.00;99.90;;;;;;4113188;28;21045;-72
2021/11/19 04:31:46;;;;;;;30.42;17.17;;;11.00;99.90;;;;;;4118407;28;20043;-72
2021/11/19 04:33:48;;;;;;;29.80;18.13;;;11.00;99.90;;;;;;4119059;28;20030;-72
2021/11/19 04:35:52;;;;;;;28.97;17.07;;;11.00;99.90;;;;;;4132044;28;20026;-72
2021/11/19 04:37:53;;;;;;;25.70;16.33;;;11.00;99.90;;;;;;4123759;28;20257;-72
2021/11/19 04:39:54;;;;;;;25.20;16.42;;;11.00;99.90;;;;;;4118338;28;20026;-72
2021/11/19 04:41:55;;;;;;;26.42;18.10;;;11.00;99.90;;;;;;4119661;28;20024;-72
2021/11/19 04:43:56;;;;;;;27.85;17.75;;;11.00;99.90;;;;;;4132167;28;20195;-72
2021/11/19 04:45:57;;;;;;;21.95;15.13;;;11.10;99.90;;;;;;4131413;28;20115;-73
2021/11/19 04:47:58;;;;;;;30.42;18.05;;;11.00;99.90;;;;;;4133152;28;20026;-72
2021/11/19 04:49:58;;;;;;;29.90;18.42;;;11.00;99.90;;;;;;4132647;28;20033;-72
2021/11/19 04:51:59;;;;;;;28.58;16.70;;;11.00;99.90;;;;;;4116426;28;20138;-73
2021/11/19 04:54:00;;;;;;;26.90;16.23;;;11.00;99.90;;;;;;4115541;28;20034;-72
2021/11/19 04:56:02;;;;;;;29.95;16.85;;;11.00;99.90;;;;;;4133820;28;20088;-72
2021/11/19 04:58:05;;;;;;;24.63;15.75;;;11.00;99.90;;;;;;4134419;28;20037;-72
2021/11/19 05:00:11;;;;;;;25.50;15.60;;;11.00;99.90;;;;;;4131994;28;20037;-72
2021/11/19 05:02:16;;;;;;;29.98;17.60;;;11.10;99.90;;;;;;4130582;28;20029;-72
2021/11/19 05:04:17;;;;;;;29.80;17.50;;;11.10;99.90;;;;;;4120005;28;20034;-72
2021/11/19 05:06:18;;;;;;;30.25;17.60;;;11.00;99.90;;;;;;4115703;28;20047;-73
2021/11/19 05:08:20;;;;;;;29.33;18.48;;;11.00;99.90;;;;;;4121179;28;20034;-72
2021/11/19 05:10:20;;;;;;;25.85;17.35;;;11.00;99.90;;;;;;4116994;28;20042;-72
2021/11/19 05:12:29;;;;;;;27.33;17.25;;;11.00;99.90;;;;;;4118149;28;20395;-72
2021/11/19 05:14:32;;;;;;;26.88;17.10;;;11.00;99.90;;;;;;4130612;28;20467;-72
2021/11/19 05:16:35;;;;;;;27.80;17.35;;;11.00;99.90;;;;;;4131712;28;20033;-72
2021/11/19 05:18:38;;;;;;;28.15;18.10;;;11.00;99.90;;;;;;4118953;28;20029;-72
2021/11/19 05:20:39;;;;;;;28.45;16.42;;;11.00;99.90;;;;;;4132155;28;20033;-72
2021/11/19 05:22:40;;;;;;;29.63;17.55;;;11.10;99.90;;;;;;4100226;28;20032;-72
2021/11/19 05:24:41;;;;;;;31.80;19.02;;;11.00;99.90;;;;;;4132756;28;20041;-72
2021/11/19 05:26:44;;;;;;;28.35;17.55;;;11.10;99.90;;;;;;4131465;28;20027;-72
2021/11/19 05:28:45;;;;;;;32.85;18.45;;;11.10;99.90;;;;;;4121291;28;20031;-72
2021/11/19 05:30:46;;;;;;;26.70;18.00;;;11.10;99.90;;;;;;4138715;28;20704;-73
2021/11/19 05:32:47;;;;;;;28.60;18.20;;;11.10;99.90;;;;;;4137548;28;20731;-72
2021/11/19 05:34:49;;;;;;;30.88;19.25;;;11.10;99.90;;;;;;4138478;28;20406;-72
2021/11/19 05:36:50;;;;;;;33.53;20.17;;;11.10;99.90;;;;;;4137006;28;20048;-72
2021/11/19 05:38:50;;;;;;;32.20;19.83;;;11.10;99.90;;;;;;4138273;28;20554;-72
2021/11/19 05:40:52;;;;;;;30.33;19.38;;;11.10;99.90;;;;;;4138125;28;20037;-73
2021/11/19 05:42:54;;;;;;;30.90;19.73;;;11.00;99.90;;;;;;4137110;28;20040;-72
2021/11/19 05:44:55;;;;;;;33.42;21.52;;;11.10;99.90;;;;;;4138017;28;20662;-72
2021/11/19 05:46:55;;;;;;;31.90;20.27;;;11.10;99.90;;;;;;4127131;28;20076;-72
2021/11/19 05:48:58;;;;;;;32.78;19.98;;;11.00;99.90;;;;;;4137267;28;20022;-72
2021/11/19 05:50:59;;;;;;;;;;;11.10;99.90;;;;;;4137838;28;20038;-69
2021/11/19 05:53:02;;;;;;;33.17;19.08;;;11.10;99.90;;;;;;4137300;28;19909;-72
2021/11/19 05:55:08;;;;;;;31.15;19.70;;;11.10;99.90;;;;;;4129591;28;20049;-73
2021/11/19 05:57:11;;;;;;;31.85;20.05;;;11.10;99.90;;;;;;4129278;28;20149;-73
2021/11/19 05:59:12;;;;;;;31.50;20.85;;;11.10;99.90;;;;;;4131277;28;20053;-72
2021/11/19 06:01:17;;;;;;;33.10;21.15;;;11.10;99.90;;;;;;4119676;28;20556;-73
2021/11/19 06:03:19;;;;;;;34.78;20.67;;;11.00;99.90;;;;;;4098565;28;20038;-73
2021/11/19 06:05:21;;;;;;;29.48;20.05;;;11.10;99.90;;;;;;4115711;28;20049;-73
2021/11/19 06:07:25;;;;;;;29.67;19.08;;;11.10;99.90;;;;;;4114170;28;20935;-73
2021/11/19 06:09:30;;;;;;;28.65;18.92;;;11.00;99.90;;;;;;4133131;28;20045;-72
2021/11/19 06:11:37;;;;;;;28.33;18.75;;;11.10;99.90;;;;;;4132536;28;20042;-73
2021/11/19 06:14:01;;;;;;;33.85;20.63;;;11.00;99.90;;;;;;4131328;28;20042;-72
2021/11/19 06:16:05;;;;;;;30.90;20.25;;;11.10;99.90;;;;;;4088138;28;20045;-72
2021/11/19 06:18:11;;;;;;;30.98;18.13;;;11.10;99.90;;;;;;4115101;28;20027;-71
2021/11/19 06:20:27;;;;;;;32.10;20.20;;;11.10;99.90;;;;;;4132454;28;20046;-71
2021/11/19 06:22:35;;;;;;;30.48;19.75;;;11.10;99.90;;;;;;4127398;28;20057;-72
2021/11/19 06:24:39;;;;;;;32.85;20.52;;;11.10;99.90;;;;;;4134250;28;20502;-71
2021/11/19 06:26:43;;;;;;;28.80;17.25;;;11.10;99.90;;;;;;4134286;28;20030;-71
2021/11/19 06:28:46;;;;;;;34.58;20.20;;;11.10;99.90;;;;;;4130760;28;20781;-71
2021/11/19 06:30:47;;;;;;;;;;;11.00;99.90;;;;;;4135708;28;20049;-71
2021/11/19 06:32:48;;;;;;;33.10;20.25;;;11.10;99.90;;;;;;4132320;28;19933;-72
2021/11/19 06:34:49;;;;;;;30.27;18.58;;;11.10;99.90;;;;;;4134938;28;20568;-72
2021/11/19 06:36:51;;;;;;;29.17;17.90;;;11.10;99.90;;;;;;4132686;28;20054;-71
2021/11/19 06:38:51;;;;;;;25.08;16.70;;;11.10;99.90;;;;;;4134472;28;20756;-71
2021/11/19 06:40:52;;;;;;;28.63;17.33;;;11.10;99.90;;;;;;4129563;28;20125;-73
2021/11/19 06:42:57;;;;;;;29.50;19.77;;;11.20;99.90;;;;;;4116755;28;20039;-72
2021/11/19 06:44:57;;;;;;;29.77;18.17;;;11.20;99.90;;;;;;4113146;28;20038;-72
2021/11/19 06:46:58;;;;;;;31.27;19.25;;;11.20;99.90;;;;;;4116210;28;20406;-72
2021/11/19 06:48:59;;;;;;;32.28;19.85;;;11.10;99.90;;;;;;4132377;28;20097;-72
2021/11/19 06:51:03;;;;;;;28.52;18.38;;;11.10;99.90;;;;;;4132323;28;20041;-72
2021/11/19 06:53:05;;;;;;;30.60;18.35;;;11.10;99.90;;;;;;4112738;28;20394;-72
2021/11/19 06:55:08;;;;;;;29.13;18.60;;;11.10;99.90;;;;;;4114300;28;20522;-72
2021/11/19 06:57:09;;;;;;;31.92;18.75;;;11.10;99.90;;;;;;4130141;28;21518;-72
2021/11/19 06:59:10;;;;;;;30.55;20.13;;;11.10;99.90;;;;;;4130971;28;20046;-72
2021/11/19 07:01:11;;;;;;;24.15;17.52;;;11.10;99.90;;;;;;4130568;28;20111;-72
2021/11/19 07:03:12;;;;;;;27.63;18.10;;;11.10;99.90;;;;;;4130666;28;20049;-72
2021/11/19 07:05:14;;;;;;;24.90;16.77;;;11.10;99.90;;;;;;4112130;28;20531;-73
2021/11/19 07:07:15;;;;;;;29.05;18.08;;;11.10;99.90;;;;;;4113419;28;20632;-72
2021/11/19 07:09:18;;;;;;;26.48;17.17;;;11.10;99.90;;;;;;4132757;28;20049;-72
2021/11/19 07:11:19;;;;;;;;;;;11.10;99.90;;;;;;4113228;28;20210;-72
2021/11/19 07:13:21;;;;;;;26.95;18.42;;;11.20;99.90;;;;;;4131197;28;20283;-72
2021/11/19 07:15:23;;;;;;;27.85;16.75;;;11.10;99.90;;;;;;4130354;28;20034;-72
2021/11/19 07:17:24;;;;;;;27.00;16.52;;;11.20;99.90;;;;;;4128840;28;20030;-72
2021/11/19 07:19:24;;;;;;;27.05;18.45;;;11.20;99.90;;;;;;4132828;28;20061;-72
2021/11/19 07:21:27;;;;;;;29.25;19.58;;;11.20;99.90;;;;;;4128048;28;20034;-73
2021/11/19 07:23:28;;;;;;;24.80;17.65;;;11.20;99.90;;;;;;4124826;28;20046;-72
2021/11/19 07:25:31;;;;;;;27.02;17.42;;;11.20;99.90;;;;;;4123863;28;20042;-74
2021/11/19 07:27:32;;;;;;;31.60;19.30;;;11.20;99.90;;;;;;4125809;28;20759;-73
2021/11/19 07:29:34;;;;;;;26.80;18.42;;;11.20;99.90;;;;;;4112375;28;20046;-73
2021/11/19 07:31:36;;;;;;;24.65;15.82;;;11.20;99.90;;;;;;4130727;28;20044;-73
2021/11/19 07:33:38;;;;;;;26.83;16.98;;;11.30;99.90;;;;;;4098252;28;20027;-73
2021/11/19 07:35:39;;;;;;;26.33;18.13;;;11.20;99.90;;;;;;4097966;28;20046;-73
2021/11/19 07:37:41;;;;;;;24.27;17.17;;;11.30;99.90;;;;;;4113122;28;20027;-73
2021/11/19 07:39:42;;;;;;;23.02;16.60;;;11.30;99.90;;;;;;4130272;28;21056;-73
2021/11/19 07:41:43;;;;;;;26.00;16.60;;;11.30;99.90;;;;;;4129752;28;20066;-73
2021/11/19 07:43:44;;;;;;;23.55;17.00;;;11.30;99.90;;;;;;4132341;28;20089;-73
2021/11/19 07:45:47;;;;;;;23.27;16.60;;;11.30;99.90;;;;;;4128514;28;20053;-73
2021/11/19 07:47:49;;;;;;;;;;;11.30;99.90;;;;;;4131792;28;20073;-73
2021/11/19 07:49:50;;;;;;;22.33;15.35;;;11.30;99.90;;;;;;4128436;28;20013;-73
2021/11/19 07:51:52;;;;;;;23.13;15.35;;;11.30;99.90;;;;;;4131188;28;20069;-73
2021/11/19 07:53:54;;;;;;;25.90;17.05;;;11.30;99.90;;;;;;4130090;28;21176;-73
2021/11/19 07:55:56;;;;;;;22.77;15.65;;;11.30;99.90;;;;;;4119661;28;20888;-73
2021/11/19 07:57:57;;;;;;;23.00;16.45;;;11.30;99.90;;;;;;4112956;28;20521;-74
2021/11/19 07:59:58;;;;;;;25.05;15.90;;;11.30;99.90;;;;;;4112132;28;20042;-73
2021/11/19 08:02:00;;;;;;;19.40;13.98;;;11.40;99.90;;;;;;4130042;28;20034;-73
2021/11/19 08:04:00;;;;;;;23.73;17.05;;;11.30;99.90;;;;;;4130400;28;20034;-73
2021/11/19 08:06:04;;;;;;;22.27;15.90;;;11.40;99.90;;;;;;4134890;28;20103;-74
2021/11/19 08:08:04;;;;;;;27.50;17.88;;;11.40;99.90;;;;;;4119215;28;20054;-74
2021/11/19 08:10:06;;;;;;;23.95;16.80;;;11.30;99.90;;;;;;4135878;28;20033;-74
2021/11/19 08:12:07;;;;;;;22.35;15.95;;;11.30;99.90;;;;;;4131164;28;20045;-74
2021/11/19 08:14:09;;;;;;;26.08;17.50;;;11.30;99.90;;;;;;4130493;28;20569;-74
2021/11/19 08:16:10;;;;;;;25.63;16.90;;;11.30;99.90;;;;;;4134885;28;20125;-74
2021/11/19 08:18:23;;;;;;;24.67;16.63;;;11.30;99.90;;;;;;4119052;28;20042;-74
2021/11/19 08:20:31;;;;;;;23.67;16.55;;;11.30;99.90;;;;;;4136087;28;20037;-73
2021/11/19 08:22:33;;;;;;;24.25;17.70;;;11.40;99.90;;;;;;4116492;28;20046;-74
2021/11/19 08:24:34;;;;;;;26.40;17.33;;;11.30;99.90;;;;;;4133919;28;20034;-74
2021/11/19 08:26:40;;;;;;;23.20;16.48;;;11.30;99.90;;;;;;4135368;28;20041;-74
2021/11/19 08:28:43;;;;;;;27.52;19.58;;;11.30;99.90;;;;;;4134280;28;20030;-74
2021/11/19 08:30:46;;;;;;;26.58;17.33;;;11.30;99.90;;;;;;4135450;28;20096;-73
2021/11/19 08:32:47;;;;;;;25.70;17.90;;;11.30;99.90;;;;;;4096066;28;20065;-74
2021/11/19 08:34:49;;;;;;;23.73;16.38;;;11.30;99.90;;;;;;4116606;28;20791;-74
2021/11/19 08:36:50;;;;;;;25.17;17.17;;;11.30;99.90;;;;;;4132408;28;20042;-74
2021/11/19 08:38:52;;;;;;;26.48;17.77;;;11.40;99.90;;;;;;4116997;28;20434;-74
2021/11/19 08:40:54;;;;;;;23.88;16.60;;;11.30;99.90;;;;;;4116626;28;20154;-73
2021/11/19 08:42:55;;;;;;;27.50;19.40;;;11.30;99.90;;;;;;4134969;28;20037;-74
2021/11/19 08:44:56;;;;;;;24.95;16.90;;;11.40;99.90;;;;;;4114925;28;20050;-73
2021/11/19 08:46:56;;;;;;;21.98;15.60;;;11.40;99.90;;;;;;4133150;28;20038;-74
2021/11/19 08:49:03;;;;;;;21.75;16.02;;;11.40;99.90;;;;;;4117775;28;20543;-74
2021/11/19 08:51:07;;;;;;;21.45;16.33;;;11.40;99.90;;;;;;4134396;28;20556;-74
2021/11/19 08:53:10;;;;;;;27.02;18.42;;;11.50;99.90;;;;;;4132645;28;20092;-73
2021/11/19 08:55:13;;;;;;;23.40;17.58;;;11.50;99.90;;;;;;4133336;28;20036;-74
2021/11/19 08:57:15;;;;;;;;;;;11.50;99.90;;;;;;4134871;28;20128;-74
2021/11/19 08:59:17;;;;;;;22.50;16.17;;;11.50;99.90;;;;;;4100205;28;19960;-73
2021/11/19 09:01:20;;;;;;;26.77;19.30;;;11.50;99.90;;;;;;4117004;28;20038;-74
2021/11/19 09:03:22;;;;;;;26.90;18.30;;;11.50;99.90;;;;;;4134073;28;20041;-74
2021/11/19 09:05:24;;;;;;;21.47;16.23;;;11.50;99.90;;;;;;4134367;28;20046;-74
2021/11/19 09:07:25;;;;;;;24.50;17.95;;;11.50;99.90;;;;;;4132161;28;20412;-74
2021/11/19 09:09:28;;;;;;;25.33;18.25;;;11.50;99.90;;;;;;4098685;28;20078;-74
2021/11/19 09:11:29;;;;;;;26.15;19.23;;;11.50;99.90;;;;;;4112542;28;20077;-74
2021/11/19 09:13:30;;;;;;;27.80;17.30;;;11.50;99.90;;;;;;4133031;28;20042;-74
2021/11/19 09:15:32;;;;;;;25.70;18.10;;;11.50;99.90;;;;;;4133434;28;20054;-74
2021/11/19 09:17:56;;;;;;;28.47;19.07;;;11.50;99.90;;;;;;4133721;28;20409;-73
2021/11/19 09:19:59;;;;;;;34.17;20.02;;;11.50;99.90;;;;;;4116859;28;20788;-74
2021/11/19 09:22:15;;;;;;;27.35;17.80;;;11.50;99.90;;;;;;4116368;28;20575;-73
2021/11/19 09:24:24;;;;;;;26.73;18.25;;;11.50;99.90;;;;;;4132618;28;20572;-74
2021/11/19 09:26:44;;;;;;;26.95;17.95;;;11.50;99.90;;;;;;4115044;28;20073;-74
2021/11/19 09:28:50;;;;;;;27.83;17.63;;;11.50;99.90;;;;;;4116259;28;20277;-74
2021/11/19 09:30:54;;;;;;;24.35;17.48;;;11.60;99.90;;;;;;4132280;28;20048;-74
2021/11/19 09:32:57;;;;;;;29.52;19.50;;;11.60;99.90;;;;;;4132991;28;20684;-74
2021/11/19 09:34:59;;;;;;;27.85;19.38;;;11.60;99.90;;;;;;4116393;28;20060;-74
2021/11/19 09:37:00;;;;;;;23.27;16.93;;;11.60;99.90;;;;;;4134664;28;20092;-74
2021/11/19 09:39:02;;;;;;;29.13;19.95;;;11.60;99.90;;;;;;4117312;28;20622;-74
2021/11/19 09:41:10;;;;;;;28.23;19.33;;;11.60;99.90;;;;;;4132325;28;20033;-73
2021/11/19 09:43:34;;;;;;;33.50;21.52;;;11.70;99.90;;;;;;4115442;28;20053;-74
2021/11/19 09:45:56;;;;;;;32.03;20.30;;;11.70;99.90;;;;;;4132700;28;20565;-74
2021/11/19 09:48:15;;;;;;;29.05;18.90;;;11.70;99.90;;;;;;4132997;28;20042;-74
2021/11/19 09:50:49;;;;;;;34.00;20.88;;;11.70;99.90;;;;;;4133632;28;20049;-74
2021/11/19 09:53:21;;;;;;;36.28;23.10;;;11.60;99.90;;;;;;4131971;28;20093;-74
2021/11/19 09:55:48;;;;;;;33.03;20.33;;;11.60;99.90;;;;;;4131602;28;20037;-74
2021/11/19 09:58:14;;;;;;;29.58;19.45;;;11.70;99.90;;;;;;4131243;28;20026;-74
2021/11/19 10:00:43;;;;;;;31.90;20.42;;;11.70;99.90;;;;;;4126085;28;20042;-74
2021/11/19 10:03:05;;;;;;;31.75;21.05;;;11.70;99.90;;;;;;4099106;28;20063;-74
2021/11/19 10:05:26;;;;;;;36.28;22.73;;;11.70;99.90;;;;;;4113440;28;20042;-73
2021/11/19 10:07:53;;;;;;;37.80;23.17;;;11.70;99.90;;;;;;4113507;28;20053;-73
2021/11/19 10:10:27;;;;;;;33.83;21.20;;;11.70;99.90;;;;;;4115425;28;20125;-73
2021/11/19 10:12:38;;;;;;;34.13;22.48;;;11.70;99.90;;;;;;4131755;28;20042;-73
2021/11/19 10:14:48;;;;;;;40.65;23.58;;;11.70;99.90;;;;;;4114522;28;20893;-73
2021/11/19 10:17:26;;;;;;;33.28;21.70;;;11.70;99.90;;;;;;4132460;28;20494;-73
2021/11/19 10:19:37;;;;;;;36.72;21.85;;;11.70;99.90;;;;;;4114080;28;21299;-74
2021/11/19 10:22:07;;;;;;;31.63;22.08;;;11.70;99.90;;;;;;4112862;28;20121;-73
2021/11/19 10:24:27;;;;;;;33.15;19.95;;;11.70;99.90;;;;;;4101716;28;20426;-74
2021/11/19 10:26:34;;;;;;;31.30;19.98;;;11.80;99.90;;;;;;4127182;28;20031;-73
2021/11/19 10:28:41;;;;;;;29.30;19.98;;;11.80;99.90;;;;;;4112429;28;20076;-73
2021/11/19 10:30:50;;;;;;;32.88;20.15;;;11.80;99.90;;;;;;4132745;28;20026;-74
2021/11/19 10:32:52;;;;;;;34.80;22.17;;;11.80;99.90;;;;;;4114402;28;20038;-73
2021/11/19 10:34:59;;;;;;;35.00;22.40;;;11.90;99.90;;;;;;4130502;28;20053;-73